<?xml version="1.0" encoding="UTF-8" standalone="no" ?>
<gpx xmlns="http://www.topografix.com/GPX/1/1" xmlns:xsi="http://www.w3.org/2001/XMLSchema-instance" xsi:schemaLocation="http://www.topografix.com/GPX/1/1 http://www.topografix.com/GPX/1/1/gpx.xsd" version="1.1" creator="VisuGPX - https://www.visugpx.com">
  <metadata>
    <name>La Chapelle-de-Guinchay Cyclisme</name>
    <desc><![CDATA[Col de la Croix Montmain au départ du col de la Pierre Platte]]></desc>
  </metadata>
  <trk>
    <name><![CDATA[La Chapelle-de-Guinchay Cyclisme]]></name>
    <trkseg>
      <trkpt lat="46.07048" lon="4.55695">
        <ele>598.40002441406</ele>
        <time>2020-09-18T14:34:36.000Z</time>
      </trkpt>
      <trkpt lat="46.07041" lon="4.55702">
        <ele>597</ele>
        <time>2020-09-18T14:34:38.000Z</time>
      </trkpt>
      <trkpt lat="46.07036" lon="4.55703">
        <ele>596.40002441406</ele>
        <time>2020-09-18T14:34:39.000Z</time>
      </trkpt>
      <trkpt lat="46.07031" lon="4.55703">
        <ele>596.20001220703</ele>
        <time>2020-09-18T14:34:40.000Z</time>
      </trkpt>
      <trkpt lat="46.07027" lon="4.557">
        <ele>596.59997558594</ele>
        <time>2020-09-18T14:34:41.000Z</time>
      </trkpt>
      <trkpt lat="46.07021" lon="4.55692">
        <ele>597.59997558594</ele>
        <time>2020-09-18T14:34:43.000Z</time>
      </trkpt>
      <trkpt lat="46.07018" lon="4.55682">
        <ele>599</ele>
        <time>2020-09-18T14:34:45.000Z</time>
      </trkpt>
      <trkpt lat="46.07015" lon="4.55673">
        <ele>600.20001220703</ele>
        <time>2020-09-18T14:34:47.000Z</time>
      </trkpt>
      <trkpt lat="46.0701" lon="4.55652">
        <ele>603.20001220703</ele>
        <time>2020-09-18T14:34:52.000Z</time>
      </trkpt>
      <trkpt lat="46.0701" lon="4.55648">
        <ele>604</ele>
        <time>2020-09-18T14:34:53.000Z</time>
      </trkpt>
      <trkpt lat="46.07004" lon="4.55623">
        <ele>608.59997558594</ele>
        <time>2020-09-18T14:34:59.000Z</time>
      </trkpt>
      <trkpt lat="46.06999" lon="4.55606">
        <ele>611.59997558594</ele>
        <time>2020-09-18T14:35:03.000Z</time>
      </trkpt>
      <trkpt lat="46.06997" lon="4.55598">
        <ele>613</ele>
        <time>2020-09-18T14:35:05.000Z</time>
      </trkpt>
      <trkpt lat="46.06988" lon="4.55576">
        <ele>616.59997558594</ele>
        <time>2020-09-18T14:35:11.000Z</time>
      </trkpt>
      <trkpt lat="46.06987" lon="4.55573">
        <ele>617</ele>
        <time>2020-09-18T14:35:12.000Z</time>
      </trkpt>
      <trkpt lat="46.06977" lon="4.55559">
        <ele>619.20001220703</ele>
        <time>2020-09-18T14:35:17.000Z</time>
      </trkpt>
      <trkpt lat="46.06972" lon="4.5555">
        <ele>619.59997558594</ele>
        <time>2020-09-18T14:35:20.000Z</time>
      </trkpt>
      <trkpt lat="46.06962" lon="4.55537">
        <ele>620.20001220703</ele>
        <time>2020-09-18T14:35:25.000Z</time>
      </trkpt>
      <trkpt lat="46.06959" lon="4.55531">
        <ele>620</ele>
        <time>2020-09-18T14:35:27.000Z</time>
      </trkpt>
      <trkpt lat="46.06955" lon="4.55524">
        <ele>619.79998779297</ele>
        <time>2020-09-18T14:35:29.000Z</time>
      </trkpt>
      <trkpt lat="46.0695" lon="4.5551">
        <ele>619.59997558594</ele>
        <time>2020-09-18T14:35:33.000Z</time>
      </trkpt>
      <trkpt lat="46.06944" lon="4.55492">
        <ele>620.59997558594</ele>
        <time>2020-09-18T14:35:38.000Z</time>
      </trkpt>
      <trkpt lat="46.0694" lon="4.55477">
        <ele>621.79998779297</ele>
        <time>2020-09-18T14:35:42.000Z</time>
      </trkpt>
      <trkpt lat="46.06939" lon="4.55473">
        <ele>622</ele>
        <time>2020-09-18T14:35:43.000Z</time>
      </trkpt>
      <trkpt lat="46.06937" lon="4.55462">
        <ele>623.20001220703</ele>
        <time>2020-09-18T14:35:46.000Z</time>
      </trkpt>
      <trkpt lat="46.06935" lon="4.55448">
        <ele>624</ele>
        <time>2020-09-18T14:35:50.000Z</time>
      </trkpt>
      <trkpt lat="46.06933" lon="4.5543">
        <ele>623.59997558594</ele>
        <time>2020-09-18T14:35:55.000Z</time>
      </trkpt>
      <trkpt lat="46.06933" lon="4.55422">
        <ele>623.59997558594</ele>
        <time>2020-09-18T14:35:57.000Z</time>
      </trkpt>
      <trkpt lat="46.06933" lon="4.55408">
        <ele>623.59997558594</ele>
        <time>2020-09-18T14:36:01.000Z</time>
      </trkpt>
      <trkpt lat="46.06934" lon="4.55397">
        <ele>624.40002441406</ele>
        <time>2020-09-18T14:36:04.000Z</time>
      </trkpt>
      <trkpt lat="46.06935" lon="4.5539">
        <ele>625</ele>
        <time>2020-09-18T14:36:06.000Z</time>
      </trkpt>
      <trkpt lat="46.06937" lon="4.55368">
        <ele>626.79998779297</ele>
        <time>2020-09-18T14:36:12.000Z</time>
      </trkpt>
      <trkpt lat="46.06937" lon="4.55365">
        <ele>626.79998779297</ele>
        <time>2020-09-18T14:36:13.000Z</time>
      </trkpt>
      <trkpt lat="46.0694" lon="4.55348">
        <ele>627</ele>
        <time>2020-09-18T14:36:18.000Z</time>
      </trkpt>
      <trkpt lat="46.06941" lon="4.55338">
        <ele>627</ele>
        <time>2020-09-18T14:36:21.000Z</time>
      </trkpt>
      <trkpt lat="46.06942" lon="4.55335">
        <ele>627</ele>
        <time>2020-09-18T14:36:22.000Z</time>
      </trkpt>
      <trkpt lat="46.06946" lon="4.55319">
        <ele>628.20001220703</ele>
        <time>2020-09-18T14:36:27.000Z</time>
      </trkpt>
      <trkpt lat="46.06949" lon="4.55312">
        <ele>628.79998779297</ele>
        <time>2020-09-18T14:36:29.000Z</time>
      </trkpt>
      <trkpt lat="46.06951" lon="4.55306">
        <ele>629.40002441406</ele>
        <time>2020-09-18T14:36:31.000Z</time>
      </trkpt>
      <trkpt lat="46.06955" lon="4.55295">
        <ele>630.59997558594</ele>
        <time>2020-09-18T14:36:35.000Z</time>
      </trkpt>
      <trkpt lat="46.06957" lon="4.55293">
        <ele>631</ele>
        <time>2020-09-18T14:36:36.000Z</time>
      </trkpt>
      <trkpt lat="46.06963" lon="4.55279">
        <ele>632.59997558594</ele>
        <time>2020-09-18T14:36:41.000Z</time>
      </trkpt>
      <trkpt lat="46.06971" lon="4.55263">
        <ele>634</ele>
        <time>2020-09-18T14:36:47.000Z</time>
      </trkpt>
      <trkpt lat="46.06974" lon="4.55255">
        <ele>634.59997558594</ele>
        <time>2020-09-18T14:36:50.000Z</time>
      </trkpt>
      <trkpt lat="46.06978" lon="4.55246">
        <ele>634.79998779297</ele>
        <time>2020-09-18T14:36:53.000Z</time>
      </trkpt>
      <trkpt lat="46.06983" lon="4.55235">
        <ele>635.59997558594</ele>
        <time>2020-09-18T14:36:58.000Z</time>
      </trkpt>
      <trkpt lat="46.06986" lon="4.55227">
        <ele>636</ele>
        <time>2020-09-18T14:37:01.000Z</time>
      </trkpt>
      <trkpt lat="46.06991" lon="4.55216">
        <ele>636.40002441406</ele>
        <time>2020-09-18T14:37:05.000Z</time>
      </trkpt>
      <trkpt lat="46.06992" lon="4.55213">
        <ele>636.59997558594</ele>
        <time>2020-09-18T14:37:06.000Z</time>
      </trkpt>
      <trkpt lat="46.06996" lon="4.55203">
        <ele>637.79998779297</ele>
        <time>2020-09-18T14:37:10.000Z</time>
      </trkpt>
      <trkpt lat="46.07001" lon="4.55192">
        <ele>639.20001220703</ele>
        <time>2020-09-18T14:37:14.000Z</time>
      </trkpt>
      <trkpt lat="46.07003" lon="4.55187">
        <ele>639.79998779297</ele>
        <time>2020-09-18T14:37:16.000Z</time>
      </trkpt>
      <trkpt lat="46.0701" lon="4.55171">
        <ele>641.59997558594</ele>
        <time>2020-09-18T14:37:22.000Z</time>
      </trkpt>
      <trkpt lat="46.07011" lon="4.55169">
        <ele>641.79998779297</ele>
        <time>2020-09-18T14:37:23.000Z</time>
      </trkpt>
      <trkpt lat="46.07016" lon="4.55156">
        <ele>643</ele>
        <time>2020-09-18T14:37:28.000Z</time>
      </trkpt>
      <trkpt lat="46.0702" lon="4.55145">
        <ele>643.59997558594</ele>
        <time>2020-09-18T14:37:32.000Z</time>
      </trkpt>
      <trkpt lat="46.07022" lon="4.5514">
        <ele>643.79998779297</ele>
        <time>2020-09-18T14:37:34.000Z</time>
      </trkpt>
      <trkpt lat="46.07026" lon="4.5513">
        <ele>644.59997558594</ele>
        <time>2020-09-18T14:37:38.000Z</time>
      </trkpt>
      <trkpt lat="46.0703" lon="4.55123">
        <ele>645.40002441406</ele>
        <time>2020-09-18T14:37:41.000Z</time>
      </trkpt>
      <trkpt lat="46.07031" lon="4.5512">
        <ele>645.40002441406</ele>
        <time>2020-09-18T14:37:42.000Z</time>
      </trkpt>
      <trkpt lat="46.07034" lon="4.55109">
        <ele>646.79998779297</ele>
        <time>2020-09-18T14:37:46.000Z</time>
      </trkpt>
      <trkpt lat="46.07036" lon="4.55104">
        <ele>647.79998779297</ele>
        <time>2020-09-18T14:37:48.000Z</time>
      </trkpt>
      <trkpt lat="46.07039" lon="4.55096">
        <ele>649.20001220703</ele>
        <time>2020-09-18T14:37:51.000Z</time>
      </trkpt>
      <trkpt lat="46.07042" lon="4.55087">
        <ele>650.40002441406</ele>
        <time>2020-09-18T14:37:54.000Z</time>
      </trkpt>
      <trkpt lat="46.07044" lon="4.55081">
        <ele>651</ele>
        <time>2020-09-18T14:37:56.000Z</time>
      </trkpt>
      <trkpt lat="46.07046" lon="4.55071">
        <ele>651.79998779297</ele>
        <time>2020-09-18T14:37:59.000Z</time>
      </trkpt>
      <trkpt lat="46.07047" lon="4.55062">
        <ele>652.20001220703</ele>
        <time>2020-09-18T14:38:02.000Z</time>
      </trkpt>
      <trkpt lat="46.07048" lon="4.55052">
        <ele>652.59997558594</ele>
        <time>2020-09-18T14:38:05.000Z</time>
      </trkpt>
      <trkpt lat="46.07049" lon="4.55045">
        <ele>653</ele>
        <time>2020-09-18T14:38:07.000Z</time>
      </trkpt>
      <trkpt lat="46.07049" lon="4.55038">
        <ele>653.40002441406</ele>
        <time>2020-09-18T14:38:09.000Z</time>
      </trkpt>
      <trkpt lat="46.07051" lon="4.55025">
        <ele>654.79998779297</ele>
        <time>2020-09-18T14:38:13.000Z</time>
      </trkpt>
      <trkpt lat="46.07051" lon="4.55022">
        <ele>655</ele>
        <time>2020-09-18T14:38:14.000Z</time>
      </trkpt>
      <trkpt lat="46.07057" lon="4.54992">
        <ele>658.20001220703</ele>
        <time>2020-09-18T14:38:23.000Z</time>
      </trkpt>
      <trkpt lat="46.07058" lon="4.54989">
        <ele>658.59997558594</ele>
        <time>2020-09-18T14:38:24.000Z</time>
      </trkpt>
      <trkpt lat="46.07062" lon="4.54974">
        <ele>660.79998779297</ele>
        <time>2020-09-18T14:38:29.000Z</time>
      </trkpt>
      <trkpt lat="46.07064" lon="4.54964">
        <ele>662</ele>
        <time>2020-09-18T14:38:32.000Z</time>
      </trkpt>
      <trkpt lat="46.07064" lon="4.54951">
        <ele>662.59997558594</ele>
        <time>2020-09-18T14:38:36.000Z</time>
      </trkpt>
      <trkpt lat="46.07063" lon="4.54942">
        <ele>663</ele>
        <time>2020-09-18T14:38:39.000Z</time>
      </trkpt>
      <trkpt lat="46.07062" lon="4.54924">
        <ele>663.59997558594</ele>
        <time>2020-09-18T14:38:45.000Z</time>
      </trkpt>
      <trkpt lat="46.07062" lon="4.54917">
        <ele>663.79998779297</ele>
        <time>2020-09-18T14:38:47.000Z</time>
      </trkpt>
      <trkpt lat="46.07059" lon="4.54898">
        <ele>664</ele>
        <time>2020-09-18T14:38:53.000Z</time>
      </trkpt>
      <trkpt lat="46.07056" lon="4.54887">
        <ele>664.20001220703</ele>
        <time>2020-09-18T14:38:56.000Z</time>
      </trkpt>
      <trkpt lat="46.07054" lon="4.54877">
        <ele>664.59997558594</ele>
        <time>2020-09-18T14:38:59.000Z</time>
      </trkpt>
      <trkpt lat="46.0705" lon="4.5486">
        <ele>666</ele>
        <time>2020-09-18T14:39:04.000Z</time>
      </trkpt>
      <trkpt lat="46.07048" lon="4.5485">
        <ele>667.79998779297</ele>
        <time>2020-09-18T14:39:07.000Z</time>
      </trkpt>
      <trkpt lat="46.07043" lon="4.54837">
        <ele>669.79998779297</ele>
        <time>2020-09-18T14:39:11.000Z</time>
      </trkpt>
      <trkpt lat="46.07037" lon="4.54824">
        <ele>671.40002441406</ele>
        <time>2020-09-18T14:39:15.000Z</time>
      </trkpt>
      <trkpt lat="46.07033" lon="4.5482">
        <ele>671.79998779297</ele>
        <time>2020-09-18T14:39:17.000Z</time>
      </trkpt>
      <trkpt lat="46.07019" lon="4.54815">
        <ele>670.79998779297</ele>
        <time>2020-09-18T14:39:22.000Z</time>
      </trkpt>
      <trkpt lat="46.07011" lon="4.54815">
        <ele>669.59997558594</ele>
        <time>2020-09-18T14:39:25.000Z</time>
      </trkpt>
      <trkpt lat="46.06999" lon="4.54816">
        <ele>667.59997558594</ele>
        <time>2020-09-18T14:39:29.000Z</time>
      </trkpt>
      <trkpt lat="46.06979" lon="4.54815">
        <ele>664.79998779297</ele>
        <time>2020-09-18T14:39:36.000Z</time>
      </trkpt>
      <trkpt lat="46.06962" lon="4.54799">
        <ele>664.20001220703</ele>
        <time>2020-09-18T14:39:43.000Z</time>
      </trkpt>
      <trkpt lat="46.0696" lon="4.54796">
        <ele>664.40002441406</ele>
        <time>2020-09-18T14:39:44.000Z</time>
      </trkpt>
      <trkpt lat="46.06954" lon="4.54779">
        <ele>666.20001220703</ele>
        <time>2020-09-18T14:39:49.000Z</time>
      </trkpt>
      <trkpt lat="46.06954" lon="4.5475">
        <ele>670</ele>
        <time>2020-09-18T14:39:56.000Z</time>
      </trkpt>
      <trkpt lat="46.06956" lon="4.5473">
        <ele>673.20001220703</ele>
        <time>2020-09-18T14:40:01.000Z</time>
      </trkpt>
      <trkpt lat="46.06956" lon="4.54726">
        <ele>674</ele>
        <time>2020-09-18T14:40:02.000Z</time>
      </trkpt>
      <trkpt lat="46.06959" lon="4.5471">
        <ele>677</ele>
        <time>2020-09-18T14:40:06.000Z</time>
      </trkpt>
      <trkpt lat="46.06961" lon="4.54695">
        <ele>680.20001220703</ele>
        <time>2020-09-18T14:40:10.000Z</time>
      </trkpt>
      <trkpt lat="46.06962" lon="4.54688">
        <ele>682</ele>
        <time>2020-09-18T14:40:12.000Z</time>
      </trkpt>
      <trkpt lat="46.06966" lon="4.54666">
        <ele>687.59997558594</ele>
        <time>2020-09-18T14:40:18.000Z</time>
      </trkpt>
      <trkpt lat="46.06967" lon="4.54648">
        <ele>691.59997558594</ele>
        <time>2020-09-18T14:40:23.000Z</time>
      </trkpt>
      <trkpt lat="46.06968" lon="4.54643">
        <ele>692.59997558594</ele>
        <time>2020-09-18T14:40:24.000Z</time>
      </trkpt>
      <trkpt lat="46.06966" lon="4.5464">
        <ele>693</ele>
        <time>2020-09-18T14:40:25.000Z</time>
      </trkpt>
      <trkpt lat="46.06963" lon="4.5463">
        <ele>694.20001220703</ele>
        <time>2020-09-18T14:40:28.000Z</time>
      </trkpt>
      <trkpt lat="46.0695" lon="4.54615">
        <ele>694</ele>
        <time>2020-09-18T14:40:34.000Z</time>
      </trkpt>
      <trkpt lat="46.06937" lon="4.54601">
        <ele>695</ele>
        <time>2020-09-18T14:40:40.000Z</time>
      </trkpt>
      <trkpt lat="46.06935" lon="4.54599">
        <ele>695.20001220703</ele>
        <time>2020-09-18T14:40:41.000Z</time>
      </trkpt>
      <trkpt lat="46.06926" lon="4.54589">
        <ele>696</ele>
        <time>2020-09-18T14:40:45.000Z</time>
      </trkpt>
      <trkpt lat="46.06913" lon="4.54573">
        <ele>697.59997558594</ele>
        <time>2020-09-18T14:40:51.000Z</time>
      </trkpt>
      <trkpt lat="46.06895" lon="4.54563">
        <ele>695.59997558594</ele>
        <time>2020-09-18T14:40:58.000Z</time>
      </trkpt>
      <trkpt lat="46.06874" lon="4.54567">
        <ele>690.40002441406</ele>
        <time>2020-09-18T14:41:06.000Z</time>
      </trkpt>
      <trkpt lat="46.06871" lon="4.54568">
        <ele>689.59997558594</ele>
        <time>2020-09-18T14:41:07.000Z</time>
      </trkpt>
      <trkpt lat="46.06849" lon="4.54568">
        <ele>685.59997558594</ele>
        <time>2020-09-18T14:41:15.000Z</time>
      </trkpt>
      <trkpt lat="46.06847" lon="4.54567">
        <ele>685.20001220703</ele>
        <time>2020-09-18T14:41:16.000Z</time>
      </trkpt>
      <trkpt lat="46.06837" lon="4.54561">
        <ele>685.20001220703</ele>
        <time>2020-09-18T14:41:20.000Z</time>
      </trkpt>
      <trkpt lat="46.06835" lon="4.54559">
        <ele>685.40002441406</ele>
        <time>2020-09-18T14:41:21.000Z</time>
      </trkpt>
      <trkpt lat="46.0683" lon="4.54554">
        <ele>686</ele>
        <time>2020-09-18T14:41:23.000Z</time>
      </trkpt>
      <trkpt lat="46.06824" lon="4.54542">
        <ele>688.40002441406</ele>
        <time>2020-09-18T14:41:27.000Z</time>
      </trkpt>
      <trkpt lat="46.06822" lon="4.54539">
        <ele>689</ele>
        <time>2020-09-18T14:41:28.000Z</time>
      </trkpt>
      <trkpt lat="46.06818" lon="4.54529">
        <ele>691.20001220703</ele>
        <time>2020-09-18T14:41:31.000Z</time>
      </trkpt>
      <trkpt lat="46.06815" lon="4.54523">
        <ele>692.59997558594</ele>
        <time>2020-09-18T14:41:33.000Z</time>
      </trkpt>
      <trkpt lat="46.06814" lon="4.5452">
        <ele>693.40002441406</ele>
        <time>2020-09-18T14:41:34.000Z</time>
      </trkpt>
      <trkpt lat="46.06812" lon="4.54513">
        <ele>695.20001220703</ele>
        <time>2020-09-18T14:41:36.000Z</time>
      </trkpt>
      <trkpt lat="46.06809" lon="4.54501">
        <ele>698.20001220703</ele>
        <time>2020-09-18T14:41:39.000Z</time>
      </trkpt>
      <trkpt lat="46.06806" lon="4.5449">
        <ele>700.79998779297</ele>
        <time>2020-09-18T14:41:42.000Z</time>
      </trkpt>
      <trkpt lat="46.06805" lon="4.54487">
        <ele>701.79998779297</ele>
        <time>2020-09-18T14:41:43.000Z</time>
      </trkpt>
      <trkpt lat="46.06798" lon="4.54467">
        <ele>706.40002441406</ele>
        <time>2020-09-18T14:41:49.000Z</time>
      </trkpt>
      <trkpt lat="46.06789" lon="4.54453">
        <ele>709</ele>
        <time>2020-09-18T14:41:54.000Z</time>
      </trkpt>
      <trkpt lat="46.06784" lon="4.54448">
        <ele>709.40002441406</ele>
        <time>2020-09-18T14:41:56.000Z</time>
      </trkpt>
      <trkpt lat="46.06771" lon="4.5444">
        <ele>710</ele>
        <time>2020-09-18T14:42:02.000Z</time>
      </trkpt>
      <trkpt lat="46.06756" lon="4.54431">
        <ele>710.20001220703</ele>
        <time>2020-09-18T14:42:08.000Z</time>
      </trkpt>
      <trkpt lat="46.0674" lon="4.54415">
        <ele>713</ele>
        <time>2020-09-18T14:42:15.000Z</time>
      </trkpt>
      <trkpt lat="46.06734" lon="4.54407">
        <ele>714.40002441406</ele>
        <time>2020-09-18T14:42:18.000Z</time>
      </trkpt>
      <trkpt lat="46.06727" lon="4.54402">
        <ele>715.20001220703</ele>
        <time>2020-09-18T14:42:21.000Z</time>
      </trkpt>
      <trkpt lat="46.06713" lon="4.54398">
        <ele>715</ele>
        <time>2020-09-18T14:42:26.000Z</time>
      </trkpt>
      <trkpt lat="46.06697" lon="4.54399">
        <ele>713.20001220703</ele>
        <time>2020-09-18T14:42:33.000Z</time>
      </trkpt>
      <trkpt lat="46.06687" lon="4.54403">
        <ele>710.59997558594</ele>
        <time>2020-09-18T14:42:38.000Z</time>
      </trkpt>
      <trkpt lat="46.06685" lon="4.54404">
        <ele>709.79998779297</ele>
        <time>2020-09-18T14:42:39.000Z</time>
      </trkpt>
      <trkpt lat="46.06679" lon="4.5441">
        <ele>707.79998779297</ele>
        <time>2020-09-18T14:42:42.000Z</time>
      </trkpt>
      <trkpt lat="46.06674" lon="4.54414">
        <ele>706.79998779297</ele>
        <time>2020-09-18T14:42:44.000Z</time>
      </trkpt>
      <trkpt lat="46.06662" lon="4.54422">
        <ele>704.59997558594</ele>
        <time>2020-09-18T14:42:49.000Z</time>
      </trkpt>
      <trkpt lat="46.06659" lon="4.54425">
        <ele>704</ele>
        <time>2020-09-18T14:42:50.000Z</time>
      </trkpt>
      <trkpt lat="46.06645" lon="4.54433">
        <ele>701.79998779297</ele>
        <time>2020-09-18T14:42:56.000Z</time>
      </trkpt>
      <trkpt lat="46.06641" lon="4.54436">
        <ele>701</ele>
        <time>2020-09-18T14:42:57.000Z</time>
      </trkpt>
      <trkpt lat="46.06636" lon="4.5444">
        <ele>699.59997558594</ele>
        <time>2020-09-18T14:42:59.000Z</time>
      </trkpt>
      <trkpt lat="46.06631" lon="4.54443">
        <ele>699</ele>
        <time>2020-09-18T14:43:01.000Z</time>
      </trkpt>
      <trkpt lat="46.06629" lon="4.54446">
        <ele>698.79998779297</ele>
        <time>2020-09-18T14:43:02.000Z</time>
      </trkpt>
      <trkpt lat="46.06621" lon="4.5445">
        <ele>699</ele>
        <time>2020-09-18T14:43:05.000Z</time>
      </trkpt>
      <trkpt lat="46.06617" lon="4.54453">
        <ele>698.59997558594</ele>
        <time>2020-09-18T14:43:07.000Z</time>
      </trkpt>
      <trkpt lat="46.06612" lon="4.54456">
        <ele>698.20001220703</ele>
        <time>2020-09-18T14:43:09.000Z</time>
      </trkpt>
      <trkpt lat="46.06603" lon="4.54462">
        <ele>697.40002441406</ele>
        <time>2020-09-18T14:43:12.000Z</time>
      </trkpt>
      <trkpt lat="46.06598" lon="4.54466">
        <ele>697</ele>
        <time>2020-09-18T14:43:14.000Z</time>
      </trkpt>
      <trkpt lat="46.06594" lon="4.54469">
        <ele>696.59997558594</ele>
        <time>2020-09-18T14:43:15.000Z</time>
      </trkpt>
      <trkpt lat="46.06585" lon="4.54473">
        <ele>696.20001220703</ele>
        <time>2020-09-18T14:43:17.000Z</time>
      </trkpt>
      <trkpt lat="46.06581" lon="4.54475">
        <ele>696.40002441406</ele>
        <time>2020-09-18T14:43:18.000Z</time>
      </trkpt>
      <trkpt lat="46.06578" lon="4.54476">
        <ele>697.20001220703</ele>
        <time>2020-09-18T14:43:19.000Z</time>
      </trkpt>
      <trkpt lat="46.06572" lon="4.54479">
        <ele>698.40002441406</ele>
        <time>2020-09-18T14:43:21.000Z</time>
      </trkpt>
      <trkpt lat="46.0656" lon="4.54476">
        <ele>701.59997558594</ele>
        <time>2020-09-18T14:43:25.000Z</time>
      </trkpt>
      <trkpt lat="46.06549" lon="4.54467">
        <ele>699.79998779297</ele>
        <time>2020-09-18T14:43:29.000Z</time>
      </trkpt>
      <trkpt lat="46.06545" lon="4.5446">
        <ele>699.59997558594</ele>
        <time>2020-09-18T14:43:31.000Z</time>
      </trkpt>
      <trkpt lat="46.06542" lon="4.54453">
        <ele>699.59997558594</ele>
        <time>2020-09-18T14:43:33.000Z</time>
      </trkpt>
      <trkpt lat="46.06539" lon="4.54432">
        <ele>699.40002441406</ele>
        <time>2020-09-18T14:43:38.000Z</time>
      </trkpt>
      <trkpt lat="46.06538" lon="4.54398">
        <ele>703.20001220703</ele>
        <time>2020-09-18T14:43:45.000Z</time>
      </trkpt>
      <trkpt lat="46.06538" lon="4.54388">
        <ele>704.59997558594</ele>
        <time>2020-09-18T14:43:47.000Z</time>
      </trkpt>
      <trkpt lat="46.06538" lon="4.54368">
        <ele>707</ele>
        <time>2020-09-18T14:43:51.000Z</time>
      </trkpt>
      <trkpt lat="46.06537" lon="4.5434">
        <ele>707.79998779297</ele>
        <time>2020-09-18T14:43:57.000Z</time>
      </trkpt>
      <trkpt lat="46.06536" lon="4.54312">
        <ele>709.40002441406</ele>
        <time>2020-09-18T14:44:03.000Z</time>
      </trkpt>
      <trkpt lat="46.06535" lon="4.54292">
        <ele>710.59997558594</ele>
        <time>2020-09-18T14:44:07.000Z</time>
      </trkpt>
      <trkpt lat="46.06535" lon="4.54287">
        <ele>711</ele>
        <time>2020-09-18T14:44:08.000Z</time>
      </trkpt>
      <trkpt lat="46.06536" lon="4.54278">
        <ele>712.40002441406</ele>
        <time>2020-09-18T14:44:10.000Z</time>
      </trkpt>
      <trkpt lat="46.06536" lon="4.54257">
        <ele>715.79998779297</ele>
        <time>2020-09-18T14:44:14.000Z</time>
      </trkpt>
      <trkpt lat="46.06536" lon="4.54252">
        <ele>716.20001220703</ele>
        <time>2020-09-18T14:44:15.000Z</time>
      </trkpt>
      <trkpt lat="46.06536" lon="4.54238">
        <ele>717.59997558594</ele>
        <time>2020-09-18T14:44:18.000Z</time>
      </trkpt>
      <trkpt lat="46.06535" lon="4.54224">
        <ele>718.59997558594</ele>
        <time>2020-09-18T14:44:21.000Z</time>
      </trkpt>
      <trkpt lat="46.06535" lon="4.5422">
        <ele>719</ele>
        <time>2020-09-18T14:44:22.000Z</time>
      </trkpt>
      <trkpt lat="46.06532" lon="4.54199">
        <ele>720.20001220703</ele>
        <time>2020-09-18T14:44:26.000Z</time>
      </trkpt>
      <trkpt lat="46.06529" lon="4.5419">
        <ele>722.20001220703</ele>
        <time>2020-09-18T14:44:28.000Z</time>
      </trkpt>
      <trkpt lat="46.06525" lon="4.54175">
        <ele>725</ele>
        <time>2020-09-18T14:44:31.000Z</time>
      </trkpt>
      <trkpt lat="46.06523" lon="4.54168">
        <ele>726.79998779297</ele>
        <time>2020-09-18T14:44:33.000Z</time>
      </trkpt>
      <trkpt lat="46.06517" lon="4.54141">
        <ele>730.40002441406</ele>
        <time>2020-09-18T14:44:39.000Z</time>
      </trkpt>
      <trkpt lat="46.06504" lon="4.54119">
        <ele>731.40002441406</ele>
        <time>2020-09-18T14:44:44.000Z</time>
      </trkpt>
      <trkpt lat="46.06486" lon="4.54099">
        <ele>734.59997558594</ele>
        <time>2020-09-18T14:44:50.000Z</time>
      </trkpt>
      <trkpt lat="46.06471" lon="4.54077">
        <ele>740</ele>
        <time>2020-09-18T14:44:56.000Z</time>
      </trkpt>
      <trkpt lat="46.06469" lon="4.54074">
        <ele>741</ele>
        <time>2020-09-18T14:44:57.000Z</time>
      </trkpt>
      <trkpt lat="46.06453" lon="4.5406">
        <ele>744.40002441406</ele>
        <time>2020-09-18T14:45:02.000Z</time>
      </trkpt>
      <trkpt lat="46.06446" lon="4.54059">
        <ele>744.20001220703</ele>
        <time>2020-09-18T14:45:04.000Z</time>
      </trkpt>
      <trkpt lat="46.06435" lon="4.54059">
        <ele>743.20001220703</ele>
        <time>2020-09-18T14:45:07.000Z</time>
      </trkpt>
      <trkpt lat="46.06424" lon="4.54064">
        <ele>740.20001220703</ele>
        <time>2020-09-18T14:45:10.000Z</time>
      </trkpt>
      <trkpt lat="46.06413" lon="4.54068">
        <ele>737.40002441406</ele>
        <time>2020-09-18T14:45:13.000Z</time>
      </trkpt>
      <trkpt lat="46.06393" lon="4.54071">
        <ele>733.40002441406</ele>
        <time>2020-09-18T14:45:18.000Z</time>
      </trkpt>
      <trkpt lat="46.06386" lon="4.54071">
        <ele>733.79998779297</ele>
        <time>2020-09-18T14:45:20.000Z</time>
      </trkpt>
      <trkpt lat="46.06377" lon="4.54071">
        <ele>734.20001220703</ele>
        <time>2020-09-18T14:45:23.000Z</time>
      </trkpt>
      <trkpt lat="46.0637" lon="4.54071">
        <ele>734.59997558594</ele>
        <time>2020-09-18T14:45:25.000Z</time>
      </trkpt>
      <trkpt lat="46.06358" lon="4.5407">
        <ele>735.59997558594</ele>
        <time>2020-09-18T14:45:29.000Z</time>
      </trkpt>
      <trkpt lat="46.06351" lon="4.54069">
        <ele>736.40002441406</ele>
        <time>2020-09-18T14:45:31.000Z</time>
      </trkpt>
      <trkpt lat="46.06331" lon="4.54068">
        <ele>738.20001220703</ele>
        <time>2020-09-18T14:45:36.000Z</time>
      </trkpt>
      <trkpt lat="46.06309" lon="4.54064">
        <ele>741.40002441406</ele>
        <time>2020-09-18T14:45:41.000Z</time>
      </trkpt>
      <trkpt lat="46.06282" lon="4.54064">
        <ele>742.40002441406</ele>
        <time>2020-09-18T14:45:48.000Z</time>
      </trkpt>
      <trkpt lat="46.06278" lon="4.54064">
        <ele>742.40002441406</ele>
        <time>2020-09-18T14:45:49.000Z</time>
      </trkpt>
      <trkpt lat="46.06267" lon="4.54065">
        <ele>742.79998779297</ele>
        <time>2020-09-18T14:45:52.000Z</time>
      </trkpt>
      <trkpt lat="46.06252" lon="4.54068">
        <ele>742.20001220703</ele>
        <time>2020-09-18T14:45:56.000Z</time>
      </trkpt>
      <trkpt lat="46.0623" lon="4.54067">
        <ele>743</ele>
        <time>2020-09-18T14:46:02.000Z</time>
      </trkpt>
      <trkpt lat="46.06214" lon="4.54066">
        <ele>743.40002441406</ele>
        <time>2020-09-18T14:46:07.000Z</time>
      </trkpt>
      <trkpt lat="46.06204" lon="4.54066">
        <ele>743.20001220703</ele>
        <time>2020-09-18T14:46:10.000Z</time>
      </trkpt>
      <trkpt lat="46.06197" lon="4.54066">
        <ele>743.40002441406</ele>
        <time>2020-09-18T14:46:12.000Z</time>
      </trkpt>
      <trkpt lat="46.06193" lon="4.54066">
        <ele>743.20001220703</ele>
        <time>2020-09-18T14:46:13.000Z</time>
      </trkpt>
      <trkpt lat="46.06173" lon="4.54069">
        <ele>742</ele>
        <time>2020-09-18T14:46:19.000Z</time>
      </trkpt>
      <trkpt lat="46.06143" lon="4.54079">
        <ele>740.20001220703</ele>
        <time>2020-09-18T14:46:28.000Z</time>
      </trkpt>
      <trkpt lat="46.0612" lon="4.54075">
        <ele>737.40002441406</ele>
        <time>2020-09-18T14:46:35.000Z</time>
      </trkpt>
      <trkpt lat="46.06107" lon="4.54062">
        <ele>739.40002441406</ele>
        <time>2020-09-18T14:46:40.000Z</time>
      </trkpt>
      <trkpt lat="46.06101" lon="4.54056">
        <ele>740.59997558594</ele>
        <time>2020-09-18T14:46:42.000Z</time>
      </trkpt>
      <trkpt lat="46.06099" lon="4.54052">
        <ele>741.20001220703</ele>
        <time>2020-09-18T14:46:43.000Z</time>
      </trkpt>
      <trkpt lat="46.06093" lon="4.54045">
        <ele>742.40002441406</ele>
        <time>2020-09-18T14:46:45.000Z</time>
      </trkpt>
      <trkpt lat="46.06087" lon="4.5404">
        <ele>743.40002441406</ele>
        <time>2020-09-18T14:46:47.000Z</time>
      </trkpt>
      <trkpt lat="46.06081" lon="4.54033">
        <ele>744.20001220703</ele>
        <time>2020-09-18T14:46:49.000Z</time>
      </trkpt>
      <trkpt lat="46.06078" lon="4.54029">
        <ele>744.20001220703</ele>
        <time>2020-09-18T14:46:50.000Z</time>
      </trkpt>
      <trkpt lat="46.06076" lon="4.54026">
        <ele>744</ele>
        <time>2020-09-18T14:46:51.000Z</time>
      </trkpt>
      <trkpt lat="46.06067" lon="4.54015">
        <ele>743.40002441406</ele>
        <time>2020-09-18T14:46:54.000Z</time>
      </trkpt>
      <trkpt lat="46.06055" lon="4.54001">
        <ele>742.59997558594</ele>
        <time>2020-09-18T14:46:58.000Z</time>
      </trkpt>
      <trkpt lat="46.0605" lon="4.53994">
        <ele>742.59997558594</ele>
        <time>2020-09-18T14:47:00.000Z</time>
      </trkpt>
      <trkpt lat="46.06047" lon="4.5399">
        <ele>742.59997558594</ele>
        <time>2020-09-18T14:47:01.000Z</time>
      </trkpt>
      <trkpt lat="46.06038" lon="4.53979">
        <ele>742.40002441406</ele>
        <time>2020-09-18T14:47:04.000Z</time>
      </trkpt>
      <trkpt lat="46.06027" lon="4.53966">
        <ele>742.40002441406</ele>
        <time>2020-09-18T14:47:08.000Z</time>
      </trkpt>
      <trkpt lat="46.06022" lon="4.53958">
        <ele>742.40002441406</ele>
        <time>2020-09-18T14:47:10.000Z</time>
      </trkpt>
      <trkpt lat="46.06011" lon="4.53942">
        <ele>742.20001220703</ele>
        <time>2020-09-18T14:47:14.000Z</time>
      </trkpt>
      <trkpt lat="46.06006" lon="4.53934">
        <ele>742</ele>
        <time>2020-09-18T14:47:16.000Z</time>
      </trkpt>
      <trkpt lat="46.05995" lon="4.53919">
        <ele>741.40002441406</ele>
        <time>2020-09-18T14:47:20.000Z</time>
      </trkpt>
      <trkpt lat="46.05987" lon="4.53906">
        <ele>741</ele>
        <time>2020-09-18T14:47:23.000Z</time>
      </trkpt>
      <trkpt lat="46.05984" lon="4.53902">
        <ele>741</ele>
        <time>2020-09-18T14:47:24.000Z</time>
      </trkpt>
      <trkpt lat="46.05967" lon="4.53875">
        <ele>741</ele>
        <time>2020-09-18T14:47:31.000Z</time>
      </trkpt>
      <trkpt lat="46.05964" lon="4.53871">
        <ele>741</ele>
        <time>2020-09-18T14:47:32.000Z</time>
      </trkpt>
      <trkpt lat="46.05949" lon="4.53846">
        <ele>740.59997558594</ele>
        <time>2020-09-18T14:47:38.000Z</time>
      </trkpt>
      <trkpt lat="46.05945" lon="4.53838">
        <ele>740.40002441406</ele>
        <time>2020-09-18T14:47:40.000Z</time>
      </trkpt>
      <trkpt lat="46.05937" lon="4.53816">
        <ele>740.20001220703</ele>
        <time>2020-09-18T14:47:45.000Z</time>
      </trkpt>
      <trkpt lat="46.05935" lon="4.53807">
        <ele>740</ele>
        <time>2020-09-18T14:47:47.000Z</time>
      </trkpt>
      <trkpt lat="46.05929" lon="4.53785">
        <ele>739.79998779297</ele>
        <time>2020-09-18T14:47:52.000Z</time>
      </trkpt>
      <trkpt lat="46.05924" lon="4.53774">
        <ele>738.79998779297</ele>
        <time>2020-09-18T14:47:55.000Z</time>
      </trkpt>
      <trkpt lat="46.05919" lon="4.53771">
        <ele>738.40002441406</ele>
        <time>2020-09-18T14:47:57.000Z</time>
      </trkpt>
      <trkpt lat="46.05916" lon="4.53771">
        <ele>738.20001220703</ele>
        <time>2020-09-18T14:47:59.000Z</time>
      </trkpt>
      <trkpt lat="46.05913" lon="4.5377">
        <ele>738</ele>
        <time>2020-09-18T14:48:02.000Z</time>
      </trkpt>
      <trkpt lat="46.05909" lon="4.53775">
        <ele>738</ele>
        <time>2020-09-18T14:48:04.000Z</time>
      </trkpt>
      <trkpt lat="46.05899" lon="4.53789">
        <ele>738.40002441406</ele>
        <time>2020-09-18T14:48:08.000Z</time>
      </trkpt>
      <trkpt lat="46.05896" lon="4.53792">
        <ele>738</ele>
        <time>2020-09-18T14:48:09.000Z</time>
      </trkpt>
      <trkpt lat="46.05893" lon="4.53794">
        <ele>737.79998779297</ele>
        <time>2020-09-18T14:48:10.000Z</time>
      </trkpt>
      <trkpt lat="46.05887" lon="4.53799">
        <ele>737.79998779297</ele>
        <time>2020-09-18T14:48:12.000Z</time>
      </trkpt>
    </trkseg>
  </trk>
</gpx>